< < Back
Terminal Aerodrome Forecast


Current Version              Previous Versions:   1  2  3  4  5  6  7  8  9  

Terminal Aerodrome Forecast

543
FTUS42 KFFC 251136
TAFCSG
TAF
KCSG 251136Z 2512/2612 11006KT P6SM BKN012
     FM251500 13005KT P6SM BKN025
     FM252100 14009KT 6SM -SHRA BKN035 PROB30 2521/2601 3SM -TSRA
      BKN012CB
     FM260100 14007KT P6SM SCT025 BKN040
     FM260800 15006KT P6SM BKN009=

Latest METAR

757
SAUS70 KWBC 251300
MTRCSG
METAR KCSG 251251Z 11009KT 10SM BKN014 BKN050 OVC065 22/18 A3024 RMK AO2
SLP234 T02220183


USA.gov is the U.S. government's official web portal to all federal, state and local government web resources and services.